createdAt,value
2023-01-26T00:00:55.494Z,102330.34
2023-01-26T00:03:22.231Z,102328.25
2023-01-26T00:05:48.680Z,102322.84
2023-01-26T00:08:15.031Z,102323.94
2023-01-26T00:10:42.258Z,102323.34
2023-01-26T00:13:10.264Z,102311.84
2023-01-26T00:15:37.528Z,102318.69
2023-01-26T00:18:04.139Z,102316.16
2023-01-26T00:20:30.622Z,102316.31
2023-01-26T00:22:57.012Z,102307.00
2023-01-26T00:25:23.415Z,102310.84
2023-01-26T00:27:49.842Z,102302.00
2023-01-26T00:30:16.516Z,102297.59
2023-01-26T00:32:43.161Z,102293.38
2023-01-26T00:35:09.699Z,102293.97
2023-01-26T00:37:36.391Z,102284.97
2023-01-26T00:40:02.941Z,102286.63
2023-01-26T00:42:29.324Z,102285.22
2023-01-26T00:44:56.673Z,102283.22
2023-01-26T00:47:23.138Z,102280.84
2023-01-26T00:49:49.700Z,102282.53
2023-01-26T00:52:16.313Z,102273.59
2023-01-26T00:54:42.752Z,102274.78
2023-01-26T00:57:09.753Z,102280.75
2023-01-26T00:59:36.157Z,102270.03
2023-01-26T01:02:02.734Z,102266.22
2023-01-26T01:04:32.388Z,102270.16
2023-01-26T01:07:00.251Z,102261.38
2023-01-26T01:09:27.009Z,102260.19
2023-01-26T01:11:53.433Z,102266.81
2023-01-26T01:14:19.831Z,102258.84
2023-01-26T01:16:46.536Z,102265.13
2023-01-26T01:19:15.332Z,102263.75
2023-01-26T01:21:42.893Z,102260.16
2023-01-26T01:24:11.297Z,102255.84
2023-01-26T01:26:38.085Z,102248.03
2023-01-26T01:29:06.133Z,102258.16
2023-01-26T01:31:32.825Z,102242.16
2023-01-26T01:33:59.316Z,102254.53
2023-01-26T01:36:25.754Z,102250.50
2023-01-26T01:38:52.234Z,102246.50
2023-01-26T01:41:21.315Z,102246.28
2023-01-26T01:43:47.804Z,102249.19
2023-01-26T01:46:28.305Z,102249.75
2023-01-26T01:49:16.557Z,102240.81
2023-01-26T01:51:53.929Z,102240.31
2023-01-26T01:54:31.305Z,102247.16
2023-01-26T01:57:02.363Z,102249.66
2023-01-26T01:59:31.339Z,102249.28
2023-01-26T02:01:57.918Z,102248.09
2023-01-26T02:04:25.398Z,102243.63
2023-01-26T02:06:55.257Z,102240.69
2023-01-26T02:09:53.089Z,102241.75
2023-01-26T02:12:25.896Z,102236.00
2023-01-26T02:14:53.132Z,102239.06
2023-01-26T02:17:21.243Z,102236.97
2023-01-26T02:19:50.770Z,102236.81
2023-01-26T02:22:37.649Z,102229.31
2023-01-26T02:25:12.618Z,102233.31
2023-01-26T02:27:40.350Z,102231.34
2023-01-26T02:30:08.505Z,102234.13
2023-01-26T02:32:36.471Z,102236.38
2023-01-26T02:35:03.024Z,102231.63
2023-01-26T02:37:29.608Z,102224.00
2023-01-26T02:40:05.296Z,102218.44
2023-01-26T02:42:41.997Z,102221.66
2023-01-26T02:45:10.733Z,102214.53
2023-01-26T02:47:37.225Z,102209.91
2023-01-26T02:50:05.139Z,102214.69
2023-01-26T02:52:31.735Z,102202.50
2023-01-26T02:55:22.335Z,102207.69
2023-01-26T02:57:50.632Z,102205.53
2023-01-26T03:00:19.736Z,102206.22
2023-01-26T03:02:50.840Z,102208.28
2023-01-26T03:05:17.687Z,102200.78
2023-01-26T03:07:44.407Z,102201.69
2023-01-26T03:10:12.251Z,102201.00
2023-01-26T03:12:39.252Z,102194.91
2023-01-26T03:15:24.803Z,102198.09
2023-01-26T03:17:51.664Z,102193.72
2023-01-26T03:20:37.030Z,102208.88
2023-01-26T03:23:22.237Z,102190.13
2023-01-26T03:26:11.111Z,102192.06
2023-01-26T03:28:37.684Z,102187.69
2023-01-26T03:31:06.933Z,102184.97
2023-01-26T03:33:33.634Z,102182.91
2023-01-26T03:36:00.153Z,102185.03
2023-01-26T03:38:27.019Z,102181.03
2023-01-26T03:41:16.719Z,102179.78
2023-01-26T03:44:01.925Z,102182.44
2023-01-26T03:46:47.324Z,102179.31
2023-01-26T03:49:33.404Z,102176.22
2023-01-26T03:52:19.561Z,102173.28
2023-01-26T03:55:06.410Z,102169.97
2023-01-26T03:57:32.885Z,102174.53
2023-01-26T03:59:59.269Z,102180.13
2023-01-26T04:02:45.554Z,102166.50
2023-01-26T04:05:30.348Z,102179.94
2023-01-26T04:08:22.642Z,102173.03
2023-01-26T04:10:51.798Z,102170.78
2023-01-26T04:13:38.074Z,102172.22
2023-01-26T04:16:29.960Z,102174.34
2023-01-26T04:19:15.041Z,102175.38
2023-01-26T04:21:41.407Z,102171.38
2023-01-26T04:24:17.523Z,102171.41
2023-01-26T04:26:45.589Z,102180.00
2023-01-26T04:29:16.969Z,102175.09
2023-01-26T04:31:45.225Z,102175.88
2023-01-26T04:34:15.767Z,102176.63
2023-01-26T04:36:42.764Z,102173.47
2023-01-26T04:39:09.799Z,102172.69
2023-01-26T04:41:40.649Z,102174.69
2023-01-26T04:44:10.830Z,102165.94
2023-01-26T04:46:37.439Z,102165.72
2023-01-26T04:49:04.307Z,102169.88
2023-01-26T04:51:30.727Z,102167.66
2023-01-26T04:53:58.342Z,102161.13
2023-01-26T04:56:30.424Z,102162.44
2023-01-26T04:59:00.197Z,102148.94
2023-01-26T05:01:26.872Z,102160.88
2023-01-26T05:03:53.582Z,102161.47
2023-01-26T05:06:20.214Z,102159.81
2023-01-26T05:08:48.416Z,102160.81
2023-01-26T05:11:15.250Z,102149.25
2023-01-26T05:13:47.317Z,102141.22
2023-01-26T05:16:16.575Z,102141.22
2023-01-26T05:18:57.159Z,102142.78
2023-01-26T05:21:32.268Z,102145.84
2023-01-26T05:23:58.803Z,102144.41
2023-01-26T05:26:38.361Z,102147.13
2023-01-26T05:29:09.361Z,102140.25
2023-01-26T05:31:36.571Z,102140.44
2023-01-26T05:34:03.355Z,102132.94
2023-01-26T05:36:31.044Z,102139.47
2023-01-26T05:38:57.461Z,102135.72
2023-01-26T05:41:26.056Z,102144.75
2023-01-26T05:44:15.608Z,102143.28
2023-01-26T05:46:46.065Z,102134.69
2023-01-26T05:49:12.597Z,102143.78
2023-01-26T05:51:39.050Z,102135.84
2023-01-26T05:54:06.803Z,102141.53
2023-01-26T05:56:33.832Z,102138.09
2023-01-26T05:59:03.400Z,102141.63
2023-01-26T06:01:30.437Z,102146.13
2023-01-26T06:04:00.560Z,102148.41
2023-01-26T06:06:34.171Z,102147.22
2023-01-26T06:09:21.156Z,102148.78
2023-01-26T06:12:19.719Z,102149.66
2023-01-26T06:14:59.210Z,102150.78
2023-01-26T06:17:36.771Z,102152.97
2023-01-26T06:20:06.707Z,102147.72
2023-01-26T06:22:33.901Z,102156.44
2023-01-26T06:25:00.408Z,102159.34
2023-01-26T06:27:27.618Z,102154.69
2023-01-26T06:29:55.499Z,102152.31
2023-01-26T06:32:22.482Z,102153.00
2023-01-26T06:34:53.339Z,102152.69
2023-01-26T06:37:20.605Z,102156.13
2023-01-26T06:39:47.487Z,102155.09
2023-01-26T06:42:13.884Z,102161.41
2023-01-26T06:44:40.335Z,102155.50
2023-01-26T06:47:07.727Z,102160.31
2023-01-26T06:49:34.688Z,102166.34
2023-01-26T06:52:22.490Z,102157.63
2023-01-26T06:54:51.526Z,102154.53
2023-01-26T06:57:53.574Z,102165.13
2023-01-26T07:00:42.556Z,102160.16
2023-01-26T07:03:18.166Z,102161.00
2023-01-26T07:05:44.528Z,102157.47
2023-01-26T07:08:11.035Z,102159.28
2023-01-26T07:10:38.468Z,102164.31
2023-01-26T07:13:06.034Z,102156.72
2023-01-26T07:15:33.097Z,102164.59
2023-01-26T07:18:00.368Z,102170.91
2023-01-26T07:20:27.665Z,102170.00
2023-01-26T07:22:54.198Z,102177.41
2023-01-26T07:25:20.749Z,102179.13
2023-01-26T07:27:47.194Z,102169.50
2023-01-26T07:30:17.008Z,102170.38
2023-01-26T07:32:43.374Z,102171.97
2023-01-26T07:35:09.896Z,102177.25
2023-01-26T07:37:36.254Z,102175.88
2023-01-26T07:40:03.766Z,102177.66
2023-01-26T07:42:30.969Z,102164.91
2023-01-26T07:45:03.592Z,102169.41
2023-01-26T07:47:29.952Z,102175.53
2023-01-26T07:49:56.485Z,102179.50
2023-01-26T07:52:22.958Z,102177.13
2023-01-26T07:54:49.535Z,102176.38
2023-01-26T07:57:15.894Z,102179.66
2023-01-26T07:59:42.324Z,102175.84
2023-01-26T08:02:10.516Z,102169.09
2023-01-26T08:04:36.965Z,102169.97
2023-01-26T08:07:04.173Z,102171.03
2023-01-26T08:09:30.699Z,102174.31
2023-01-26T08:11:58.702Z,102183.94
2023-01-26T08:14:25.149Z,102189.59
2023-01-26T08:16:51.638Z,102189.03
2023-01-26T08:19:18.355Z,102189.50
2023-01-26T08:21:44.829Z,102195.44
2023-01-26T08:24:12.683Z,102194.53
2023-01-26T08:26:39.123Z,102195.44
2023-01-26T08:29:05.475Z,102192.59
2023-01-26T08:31:33.411Z,102201.03
2023-01-26T08:33:59.892Z,102197.44
2023-01-26T08:36:26.280Z,102201.78
2023-01-26T08:38:53.956Z,102196.84
2023-01-26T08:41:20.366Z,102202.03
2023-01-26T08:43:47.094Z,102205.28
2023-01-26T08:46:13.586Z,102206.88
2023-01-26T08:48:40.312Z,102209.38
2023-01-26T08:51:08.112Z,102202.47
2023-01-26T08:53:37.275Z,102203.69
2023-01-26T08:56:06.276Z,102204.28
2023-01-26T08:58:33.719Z,102203.88
2023-01-26T09:01:04.316Z,102195.59
2023-01-26T09:03:30.789Z,102190.44
2023-01-26T09:06:00.839Z,102197.50
2023-01-26T09:08:28.080Z,102194.69
2023-01-26T09:10:54.450Z,102197.41
2023-01-26T09:13:20.831Z,102192.31
2023-01-26T09:15:47.186Z,102201.03
2023-01-26T09:18:13.593Z,102188.38
2023-01-26T09:20:40.496Z,102186.84
2023-01-26T09:23:07.589Z,102187.03
2023-01-26T09:25:37.549Z,102186.34
2023-01-26T09:28:05.687Z,102192.41
2023-01-26T09:30:32.659Z,102180.38
2023-01-26T09:33:00.015Z,102177.94
2023-01-26T09:35:28.507Z,102178.88
2023-01-26T09:37:55.193Z,102178.16
2023-01-26T09:40:41.852Z,102181.72
2023-01-26T09:43:22.699Z,102177.53
2023-01-26T09:46:01.069Z,102174.13
2023-01-26T09:48:35.545Z,102173.34
2023-01-26T09:51:42.444Z,102170.88
2023-01-26T09:54:29.938Z,102171.03
2023-01-26T09:56:56.536Z,102169.19
2023-01-26T09:59:44.201Z,102167.47
2023-01-26T10:02:28.782Z,102173.59
2023-01-26T10:05:00.538Z,102175.28
2023-01-26T10:07:28.562Z,102169.31
2023-01-26T10:09:55.150Z,102174.53
2023-01-26T10:12:27.069Z,102175.41
2023-01-26T10:15:04.910Z,102172.09
2023-01-26T10:17:38.701Z,102161.75
2023-01-26T10:20:14.074Z,102172.13
2023-01-26T10:22:54.702Z,102167.84
2023-01-26T10:25:29.529Z,102162.66
2023-01-26T10:27:55.896Z,102166.63
2023-01-26T10:30:22.462Z,102160.63
2023-01-26T10:32:52.577Z,102161.63
2023-01-26T10:35:22.554Z,102165.94
2023-01-26T10:37:52.198Z,102153.16
2023-01-26T10:40:20.046Z,102152.41
2023-01-26T10:42:56.403Z,102151.69
2023-01-26T10:45:31.743Z,102142.75
2023-01-26T10:48:26.720Z,102141.69
2023-01-26T10:50:54.041Z,102150.44
2023-01-26T10:53:26.228Z,102144.63
2023-01-26T10:56:11.125Z,102142.25
2023-01-26T10:58:46.656Z,102146.63
2023-01-26T11:01:16.476Z,102151.06
2023-01-26T11:03:59.932Z,102150.34
2023-01-26T11:06:29.947Z,102149.63
2023-01-26T11:09:09.090Z,102146.25
2023-01-26T11:11:35.480Z,102154.91
2023-01-26T11:14:19.120Z,102159.31
2023-01-26T11:16:52.615Z,102163.66
2023-01-26T11:19:46.497Z,102151.59
2023-01-26T11:22:38.633Z,102152.50
2023-01-26T11:25:24.646Z,102143.09
2023-01-26T11:28:22.396Z,102141.47
2023-01-26T11:31:10.790Z,102144.94
2023-01-26T11:33:55.309Z,102147.50
2023-01-26T11:36:31.062Z,102136.31
2023-01-26T11:39:16.880Z,102126.06
2023-01-26T11:42:26.508Z,102126.09
2023-01-26T11:44:58.757Z,102122.69
2023-01-26T11:48:04.541Z,102121.91
2023-01-26T11:50:57.494Z,102114.19
2023-01-26T11:53:31.084Z,102115.03
2023-01-26T11:56:05.508Z,102115.03
2023-01-26T11:59:01.545Z,102115.06
2023-01-26T12:01:35.788Z,102107.38
2023-01-26T12:04:02.471Z,102100.53
2023-01-26T12:06:36.351Z,102100.59
2023-01-26T12:09:11.534Z,102092.00
2023-01-26T12:11:50.543Z,102099.84
2023-01-26T12:14:29.745Z,102101.59
2023-01-26T12:17:11.707Z,102106.81
2023-01-26T12:20:04.450Z,102095.66
2023-01-26T12:22:36.217Z,102098.28
2023-01-26T12:25:19.452Z,102090.53
2023-01-26T12:27:56.431Z,102084.50
2023-01-26T12:30:35.485Z,102083.66
2023-01-26T12:33:02.272Z,102082.81
2023-01-26T12:35:34.545Z,102075.91
2023-01-26T12:38:17.892Z,102076.78
2023-01-26T12:41:03.774Z,102074.22
2023-01-26T12:43:56.895Z,102056.16
2023-01-26T12:46:28.312Z,102061.31
2023-01-26T12:49:06.461Z,102054.38
2023-01-26T12:51:39.512Z,102062.19
2023-01-26T12:54:18.483Z,102051.00
2023-01-26T12:56:49.703Z,102065.69
2023-01-26T12:59:48.623Z,102063.97
2023-01-26T13:02:15.377Z,102067.41
2023-01-26T13:04:48.718Z,102066.53
2023-01-26T13:07:40.208Z,102074.28
2023-01-26T13:10:22.342Z,102082.06
2023-01-26T13:13:01.462Z,102068.22
2023-01-26T13:15:30.366Z,102062.97
2023-01-26T13:17:59.246Z,102067.22
2023-01-26T13:20:39.209Z,102057.59
2023-01-26T13:23:40.993Z,102058.50
2023-01-26T13:26:36.776Z,102051.59
2023-01-26T13:29:27.267Z,102045.56
2023-01-26T13:31:59.334Z,102062.03
2023-01-26T13:34:43.260Z,102068.13
2023-01-26T13:37:30.863Z,102049.13
2023-01-26T13:40:04.053Z,102057.75
2023-01-26T13:42:36.280Z,102055.06
2023-01-26T13:45:21.367Z,102063.69
2023-01-26T13:47:50.525Z,102060.31
2023-01-26T13:50:38.641Z,102061.19
2023-01-26T13:53:38.078Z,102066.41
2023-01-26T13:56:08.178Z,102068.13
2023-01-26T13:58:34.617Z,102073.34
2023-01-26T14:01:06.308Z,102069.97
2023-01-26T14:03:37.740Z,102069.09
2023-01-26T14:06:09.758Z,102074.31
2023-01-26T14:08:37.786Z,102065.69
2023-01-26T14:11:15.410Z,102077.72
2023-01-26T14:13:41.936Z,102086.38
2023-01-26T14:16:21.390Z,102080.31
2023-01-26T14:18:48.834Z,102081.16
2023-01-26T14:21:21.956Z,102082.06
2023-01-26T14:23:56.292Z,102081.22
2023-01-26T14:26:31.780Z,102084.66
2023-01-26T14:29:00.550Z,102086.38
2023-01-26T14:31:28.749Z,102088.16
2023-01-26T14:33:59.564Z,102098.53
2023-01-26T14:36:28.967Z,102101.19
2023-01-26T14:38:56.736Z,102095.94
2023-01-26T14:41:23.347Z,102107.16
2023-01-26T14:43:53.325Z,102099.34
2023-01-26T14:46:30.623Z,102113.16
2023-01-26T14:49:03.260Z,102122.66
2023-01-26T14:51:32.192Z,102123.47
2023-01-26T14:54:01.196Z,102123.50
2023-01-26T14:56:39.435Z,102113.16
2023-01-26T14:59:08.179Z,102108.88
2023-01-26T15:01:35.086Z,102113.19
2023-01-26T15:04:22.815Z,102116.72
2023-01-26T15:06:49.294Z,102115.88
2023-01-26T15:09:23.011Z,102121.88
2023-01-26T15:12:18.352Z,102125.34
2023-01-26T15:14:50.902Z,102122.75
2023-01-26T15:17:40.742Z,102128.84
2023-01-26T15:20:27.371Z,102114.19
2023-01-26T15:22:54.676Z,102124.56
2023-01-26T15:25:26.007Z,102127.16
2023-01-26T15:27:58.282Z,102127.16
2023-01-26T15:30:31.347Z,102128.00
2023-01-26T15:32:58.350Z,102126.28
2023-01-26T15:35:25.954Z,102129.75
2023-01-26T15:38:08.929Z,102115.09
2023-01-26T15:40:35.428Z,102109.91
2023-01-26T15:43:12.726Z,102109.09
2023-01-26T15:45:53.118Z,102121.19
2023-01-26T15:48:20.142Z,102111.72
2023-01-26T15:50:48.129Z,102114.28
2023-01-26T15:53:16.035Z,102117.78
2023-01-26T15:55:44.233Z,102119.53
2023-01-26T15:58:10.657Z,102115.22
2023-01-26T16:00:37.678Z,102118.69
2023-01-26T16:03:11.794Z,102106.59
2023-01-26T16:05:38.204Z,102107.50
2023-01-26T16:08:04.580Z,102103.22
2023-01-26T16:10:31.115Z,102111.84
2023-01-26T16:12:57.470Z,102113.59
2023-01-26T16:15:53.886Z,102120.53
2023-01-26T16:18:20.670Z,102111.03
2023-01-26T16:20:49.143Z,102113.63
2023-01-26T16:23:23.097Z,102124.88
2023-01-26T16:25:50.845Z,102131.78
2023-01-26T16:28:17.916Z,102134.41
2023-01-26T16:30:45.707Z,102132.72
2023-01-26T16:33:17.836Z,102133.59
2023-01-26T16:35:44.262Z,102137.06
2023-01-26T16:38:13.655Z,102129.31
2023-01-26T16:40:44.922Z,102139.69
2023-01-26T16:43:24.064Z,102150.06
2023-01-26T16:45:51.021Z,102146.63
2023-01-26T16:48:17.846Z,102150.94
2023-01-26T16:50:45.144Z,102155.28
2023-01-26T16:53:23.092Z,102164.81
2023-01-26T16:55:49.611Z,102158.75
2023-01-26T16:58:16.057Z,102154.47
2023-01-26T17:00:42.657Z,102154.50
2023-01-26T17:03:12.889Z,102163.13
2023-01-26T17:05:40.579Z,102161.44
2023-01-26T17:08:07.630Z,102164.03
2023-01-26T17:10:34.313Z,102171.84
2023-01-26T17:13:01.413Z,102171.03
2023-01-26T17:15:30.515Z,102175.38
2023-01-26T17:17:57.805Z,102171.06
2023-01-26T17:20:24.546Z,102176.28
2023-01-26T17:22:51.470Z,102178.88
2023-01-26T17:25:18.699Z,102179.75
2023-01-26T17:27:46.603Z,102177.19
2023-01-26T17:30:13.427Z,102179.78
2023-01-26T17:32:41.904Z,102172.94
2023-01-26T17:35:08.629Z,102177.28
2023-01-26T17:37:35.710Z,102189.38
2023-01-26T17:40:02.111Z,102185.94
2023-01-26T17:42:29.049Z,102191.16
2023-01-26T17:44:57.621Z,102188.56
2023-01-26T17:47:24.423Z,102183.44
2023-01-26T17:49:50.812Z,102183.44
2023-01-26T17:52:17.164Z,102175.69
2023-01-26T17:54:43.521Z,102173.13
2023-01-26T17:57:09.935Z,102174.00
2023-01-26T17:59:36.379Z,102167.97
2023-01-26T18:02:02.839Z,102173.16
2023-01-26T18:04:31.423Z,102170.63
2023-01-26T18:06:58.115Z,102172.38
2023-01-26T18:09:24.859Z,102182.75
2023-01-26T18:11:51.238Z,102182.78
2023-01-26T18:14:17.713Z,102185.38
2023-01-26T18:16:44.190Z,102180.19
2023-01-26T18:19:10.918Z,102185.38
2023-01-26T18:21:37.429Z,102190.56
2023-01-26T18:24:05.606Z,102194.88
2023-01-26T18:26:34.717Z,102187.97
2023-01-26T18:29:02.127Z,102189.72
2023-01-26T18:31:31.816Z,102195.78
2023-01-26T18:34:00.164Z,102201.84
2023-01-26T18:36:27.974Z,102205.34
2023-01-26T18:38:57.942Z,102207.94
2023-01-26T18:41:25.884Z,102204.50
2023-01-26T18:43:54.082Z,102212.25
2023-01-26T18:46:21.983Z,102220.06
2023-01-26T18:48:49.336Z,102216.63
2023-01-26T18:51:15.763Z,102214.06
2023-01-26T18:53:42.173Z,102215.78
2023-01-26T18:56:13.627Z,102223.56
2023-01-26T18:58:40.103Z,102222.78
2023-01-26T19:01:10.403Z,102221.91
2023-01-26T19:03:37.780Z,102223.66
2023-01-26T19:06:05.611Z,102221.94
2023-01-26T19:08:32.452Z,102228.84
2023-01-26T19:11:07.163Z,102221.06
2023-01-26T19:13:34.324Z,102222.84
2023-01-26T19:16:00.762Z,102221.13
2023-01-26T19:18:27.386Z,102222.00
2023-01-26T19:20:58.048Z,102222.06
2023-01-26T19:23:24.648Z,102229.88
2023-01-26T19:25:51.052Z,102229.00
2023-01-26T19:28:17.532Z,102232.50
2023-01-26T19:30:44.360Z,102243.75
2023-01-26T19:33:28.825Z,102241.22
2023-01-26T19:35:56.137Z,102238.63
2023-01-26T19:38:23.281Z,102246.44
2023-01-26T19:40:51.234Z,102251.63
2023-01-26T19:43:21.362Z,102248.19
2023-01-26T19:45:49.670Z,102241.28
2023-01-26T19:48:16.564Z,102249.06
2023-01-26T19:50:43.174Z,102249.09
2023-01-26T19:53:09.583Z,102249.09
2023-01-26T19:55:36.018Z,102245.66
2023-01-26T19:58:02.379Z,102242.16
2023-01-26T20:00:28.748Z,102256.00
2023-01-26T20:02:55.225Z,102247.38
2023-01-26T20:05:21.700Z,102254.34
2023-01-26T20:07:48.201Z,102252.63
2023-01-26T20:10:14.567Z,102250.94
2023-01-26T20:12:40.940Z,102250.09
2023-01-26T20:15:08.668Z,102246.66
2023-01-26T20:17:35.202Z,102244.94
2023-01-26T20:20:02.334Z,102252.72
2023-01-26T20:22:33.380Z,102250.13
2023-01-26T20:25:00.036Z,102259.72
2023-01-26T20:27:29.600Z,102264.91
2023-01-26T20:29:56.268Z,102261.44
2023-01-26T20:32:22.669Z,102264.03
2023-01-26T20:34:49.132Z,102257.13
2023-01-26T20:37:15.516Z,102260.63
2023-01-26T20:39:42.120Z,102252.84
2023-01-26T20:42:10.373Z,102263.22
2023-01-26T20:44:38.041Z,102262.44
2023-01-26T20:47:04.536Z,102256.38
2023-01-26T20:49:31.056Z,102265.03
2023-01-26T20:51:57.488Z,102271.09
2023-01-26T20:54:24.193Z,102269.38
2023-01-26T20:56:51.288Z,102270.25
2023-01-26T20:59:18.900Z,102270.25
2023-01-26T21:01:45.352Z,102267.66
2023-01-26T21:04:11.980Z,102270.25
2023-01-26T21:06:39.495Z,102270.25
2023-01-26T21:09:06.043Z,102268.44
2023-01-26T21:11:33.847Z,102266.69
2023-01-26T21:14:02.172Z,102265.03
2023-01-26T21:16:30.236Z,102261.59
2023-01-26T21:18:56.922Z,102271.09
2023-01-26T21:21:24.087Z,102256.44
2023-01-26T21:23:51.153Z,102256.44
2023-01-26T21:26:23.636Z,102264.25
2023-01-26T21:28:52.250Z,102260.84
2023-01-26T21:31:20.710Z,102262.59
2023-01-26T21:33:48.612Z,102266.06
2023-01-26T21:36:20.612Z,102263.50
2023-01-26T21:38:50.779Z,102272.16
2023-01-26T21:41:41.919Z,102263.50
2023-01-26T21:44:11.457Z,102271.31
2023-01-26T21:46:38.347Z,102263.53
2023-01-26T21:49:05.305Z,102264.44
2023-01-26T21:51:50.337Z,102276.59
2023-01-26T21:54:17.137Z,102275.75
2023-01-26T21:56:43.538Z,102275.72
2023-01-26T21:59:14.683Z,102273.16
2023-01-26T22:01:47.000Z,102277.50
2023-01-26T22:04:16.388Z,102276.63
2023-01-26T22:06:43.141Z,102274.91
2023-01-26T22:09:11.628Z,102274.03
2023-01-26T22:11:39.074Z,102273.22
2023-01-26T22:14:06.831Z,102275.84
2023-01-26T22:16:33.381Z,102279.31
2023-01-26T22:18:59.913Z,102271.53
2023-01-26T22:21:26.899Z,102268.94
2023-01-26T22:23:55.020Z,102269.78
2023-01-26T22:26:22.783Z,102270.66
2023-01-26T22:28:53.428Z,102267.19
2023-01-26T22:31:22.813Z,102268.91
2023-01-26T22:33:50.121Z,102277.59
2023-01-26T22:36:17.337Z,102273.28
2023-01-26T22:38:44.379Z,102274.16
2023-01-26T22:41:14.992Z,102269.91
2023-01-26T22:43:42.185Z,102274.16
2023-01-26T22:46:11.442Z,102269.03
2023-01-26T22:48:38.752Z,102268.19
2023-01-26T22:51:13.493Z,102273.41
2023-01-26T22:53:40.433Z,102278.59
2023-01-26T22:56:08.358Z,102270.84
2023-01-26T22:58:47.715Z,102280.34
2023-01-26T23:01:18.915Z,102275.16
2023-01-26T23:03:48.958Z,102276.00
2023-01-26T23:06:15.524Z,102285.53
2023-01-26T23:08:42.718Z,102278.59
2023-01-26T23:11:13.198Z,102280.34
2023-01-26T23:13:42.296Z,102276.84
2023-01-26T23:16:09.414Z,102289.81
2023-01-26T23:18:36.462Z,102280.28
2023-01-26T23:21:03.437Z,102276.88
2023-01-26T23:23:30.195Z,102286.41
2023-01-26T23:25:57.760Z,102282.09
2023-01-26T23:28:29.778Z,102277.81
2023-01-26T23:30:57.557Z,102278.72
2023-01-26T23:33:26.108Z,102280.44
2023-01-26T23:35:52.672Z,102278.72
2023-01-26T23:38:21.601Z,102276.97
2023-01-26T23:40:49.634Z,102284.75
2023-01-26T23:43:17.548Z,102286.47
2023-01-26T23:45:45.647Z,102282.16
2023-01-26T23:48:12.558Z,102294.28
2023-01-26T23:50:39.263Z,102289.09
2023-01-26T23:53:05.743Z,102294.34
2023-01-26T23:55:32.159Z,102290.00
2023-01-26T23:57:58.673Z,102287.38
